sensor_id;sensor_type;location;lat;lon;timestamp;P1;durP1;ratioP1;P2;durP2;ratioP2
18265;SDS011;9259;48.194;16.322;2024-03-06T00:01:04;49.33;;;21.40;;
18265;SDS011;9259;48.194;16.322;2024-03-06T00:03:32;50.23;;;22.60;;
18265;SDS011;9259;48.194;16.322;2024-03-06T00:06:00;55.93;;;24.03;;
18265;SDS011;9259;48.194;16.322;2024-03-06T00:08:28;56.37;;;23.50;;
18265;SDS011;9259;48.194;16.322;2024-03-06T00:10:56;55.83;;;23.70;;
18265;SDS011;9259;48.194;16.322;2024-03-06T00:13:24;55.57;;;24.13;;
18265;SDS011;9259;48.194;16.322;2024-03-06T00:15:52;59.87;;;24.57;;
18265;SDS011;9259;48.194;16.322;2024-03-06T00:18:22;62.13;;;26.37;;
18265;SDS011;9259;48.194;16.322;2024-03-06T00:20:50;66.03;;;27.63;;
18265;SDS011;9259;48.194;16.322;2024-03-06T00:23:18;68.57;;;27.77;;
18265;SDS011;9259;48.194;16.322;2024-03-06T00:25:46;66.80;;;28.93;;
18265;SDS011;9259;48.194;16.322;2024-03-06T00:28:14;67.13;;;27.40;;
18265;SDS011;9259;48.194;16.322;2024-03-06T00:30:42;74.40;;;28.40;;
18265;SDS011;9259;48.194;16.322;2024-03-06T00:33:10;69.40;;;27.87;;
18265;SDS011;9259;48.194;16.322;2024-03-06T00:35:39;74.90;;;28.40;;
18265;SDS011;9259;48.194;16.322;2024-03-06T00:38:07;70.67;;;27.83;;
18265;SDS011;9259;48.194;16.322;2024-03-06T00:40:35;75.10;;;30.03;;
18265;SDS011;9259;48.194;16.322;2024-03-06T00:43:03;72.63;;;29.80;;
18265;SDS011;9259;48.194;16.322;2024-03-06T00:45:31;62.47;;;26.43;;
18265;SDS011;9259;48.194;16.322;2024-03-06T00:47:59;57.23;;;24.97;;
18265;SDS011;9259;48.194;16.322;2024-03-06T00:50:28;57.30;;;24.43;;
18265;SDS011;9259;48.194;16.322;2024-03-06T00:52:57;63.73;;;28.20;;
18265;SDS011;9259;48.194;16.322;2024-03-06T00:55:25;69.33;;;27.43;;
18265;SDS011;9259;48.194;16.322;2024-03-06T00:57:53;69.87;;;28.57;;
18265;SDS011;9259;48.194;16.322;2024-03-06T01:00:21;66.20;;;27.03;;
18265;SDS011;9259;48.194;16.322;2024-03-06T01:02:49;76.93;;;29.20;;
18265;SDS011;9259;48.194;16.322;2024-03-06T01:05:17;74.60;;;30.63;;
18265;SDS011;9259;48.194;16.322;2024-03-06T01:07:45;71.90;;;27.30;;
18265;SDS011;9259;48.194;16.322;2024-03-06T01:10:14;72.43;;;30.30;;
18265;SDS011;9259;48.194;16.322;2024-03-06T01:12:43;71.67;;;29.37;;
18265;SDS011;9259;48.194;16.322;2024-03-06T01:15:11;67.43;;;29.47;;
18265;SDS011;9259;48.194;16.322;2024-03-06T01:17:39;71.57;;;29.77;;
18265;SDS011;9259;48.194;16.322;2024-03-06T01:20:07;69.63;;;28.60;;
18265;SDS011;9259;48.194;16.322;2024-03-06T01:22:36;69.50;;;28.77;;
18265;SDS011;9259;48.194;16.322;2024-03-06T01:25:04;67.20;;;27.97;;
18265;SDS011;9259;48.194;16.322;2024-03-06T01:27:34;67.33;;;29.27;;
18265;SDS011;9259;48.194;16.322;2024-03-06T01:30:02;69.90;;;29.07;;
18265;SDS011;9259;48.194;16.322;2024-03-06T01:32:31;71.83;;;29.23;;
18265;SDS011;9259;48.194;16.322;2024-03-06T01:34:59;70.13;;;28.87;;
18265;SDS011;9259;48.194;16.322;2024-03-06T01:37:28;65.77;;;28.33;;
18265;SDS011;9259;48.194;16.322;2024-03-06T01:39:56;69.00;;;28.07;;
18265;SDS011;9259;48.194;16.322;2024-03-06T01:42:24;59.27;;;26.80;;
18265;SDS011;9259;48.194;16.322;2024-03-06T01:44:53;63.07;;;26.33;;
18265;SDS011;9259;48.194;16.322;2024-03-06T01:47:21;69.50;;;28.17;;
18265;SDS011;9259;48.194;16.322;2024-03-06T01:49:49;68.87;;;29.03;;
18265;SDS011;9259;48.194;16.322;2024-03-06T01:52:17;70.57;;;29.13;;
18265;SDS011;9259;48.194;16.322;2024-03-06T01:54:46;74.27;;;29.97;;
18265;SDS011;9259;48.194;16.322;2024-03-06T01:57:16;72.37;;;30.27;;
18265;SDS011;9259;48.194;16.322;2024-03-06T01:59:45;72.40;;;29.47;;
18265;SDS011;9259;48.194;16.322;2024-03-06T02:02:14;73.83;;;30.53;;
18265;SDS011;9259;48.194;16.322;2024-03-06T02:04:42;69.20;;;28.83;;
18265;SDS011;9259;48.194;16.322;2024-03-06T02:07:10;65.17;;;26.97;;
18265;SDS011;9259;48.194;16.322;2024-03-06T02:09:39;60.73;;;27.27;;
18265;SDS011;9259;48.194;16.322;2024-03-06T02:12:07;62.30;;;27.80;;
18265;SDS011;9259;48.194;16.322;2024-03-06T02:14:35;63.07;;;27.07;;
18265;SDS011;9259;48.194;16.322;2024-03-06T02:17:04;63.33;;;28.57;;
18265;SDS011;9259;48.194;16.322;2024-03-06T02:19:40;63.97;;;27.43;;
18265;SDS011;9259;48.194;16.322;2024-03-06T02:22:10;67.10;;;27.90;;
18265;SDS011;9259;48.194;16.322;2024-03-06T02:24:44;63.93;;;27.47;;
18265;SDS011;9259;48.194;16.322;2024-03-06T02:27:15;71.40;;;29.13;;
18265;SDS011;9259;48.194;16.322;2024-03-06T02:29:43;69.73;;;29.30;;
18265;SDS011;9259;48.194;16.322;2024-03-06T02:32:12;68.07;;;27.63;;
18265;SDS011;9259;48.194;16.322;2024-03-06T02:34:40;69.73;;;28.30;;
18265;SDS011;9259;48.194;16.322;2024-03-06T02:37:08;69.70;;;28.13;;
18265;SDS011;9259;48.194;16.322;2024-03-06T02:39:37;68.20;;;28.77;;
18265;SDS011;9259;48.194;16.322;2024-03-06T02:42:05;64.03;;;27.57;;
18265;SDS011;9259;48.194;16.322;2024-03-06T02:44:33;64.13;;;27.13;;
18265;SDS011;9259;48.194;16.322;2024-03-06T02:47:01;63.80;;;26.93;;
18265;SDS011;9259;48.194;16.322;2024-03-06T02:49:29;65.03;;;27.67;;
18265;SDS011;9259;48.194;16.322;2024-03-06T02:51:57;61.57;;;27.43;;
18265;SDS011;9259;48.194;16.322;2024-03-06T02:54:28;69.00;;;28.90;;
18265;SDS011;9259;48.194;16.322;2024-03-06T02:56:56;63.63;;;27.30;;
18265;SDS011;9259;48.194;16.322;2024-03-06T02:59:23;64.40;;;27.63;;
18265;SDS011;9259;48.194;16.322;2024-03-06T03:01:52;67.67;;;27.60;;
18265;SDS011;9259;48.194;16.322;2024-03-06T03:04:20;70.90;;;29.20;;
18265;SDS011;9259;48.194;16.322;2024-03-06T03:06:48;66.50;;;28.37;;
18265;SDS011;9259;48.194;16.322;2024-03-06T03:09:16;64.00;;;28.07;;
18265;SDS011;9259;48.194;16.322;2024-03-06T03:11:46;63.93;;;28.53;;
18265;SDS011;9259;48.194;16.322;2024-03-06T03:14:13;66.73;;;29.20;;
18265;SDS011;9259;48.194;16.322;2024-03-06T03:16:41;66.70;;;29.23;;
18265;SDS011;9259;48.194;16.322;2024-03-06T03:19:10;64.73;;;27.70;;
18265;SDS011;9259;48.194;16.322;2024-03-06T03:21:41;69.73;;;28.83;;
18265;SDS011;9259;48.194;16.322;2024-03-06T03:24:10;69.30;;;28.87;;
18265;SDS011;9259;48.194;16.322;2024-03-06T03:26:38;66.03;;;29.03;;
18265;SDS011;9259;48.194;16.322;2024-03-06T03:29:09;70.57;;;30.23;;
18265;SDS011;9259;48.194;16.322;2024-03-06T03:31:37;69.53;;;29.87;;
18265;SDS011;9259;48.194;16.322;2024-03-06T03:34:05;74.90;;;30.23;;
18265;SDS011;9259;48.194;16.322;2024-03-06T03:36:32;75.47;;;30.53;;
18265;SDS011;9259;48.194;16.322;2024-03-06T03:39:00;78.10;;;30.63;;
18265;SDS011;9259;48.194;16.322;2024-03-06T03:41:29;80.93;;;31.67;;
18265;SDS011;9259;48.194;16.322;2024-03-06T03:43:57;79.90;;;32.20;;
18265;SDS011;9259;48.194;16.322;2024-03-06T03:46:26;76.50;;;31.93;;
18265;SDS011;9259;48.194;16.322;2024-03-06T03:48:54;82.80;;;33.13;;
18265;SDS011;9259;48.194;16.322;2024-03-06T03:51:21;83.73;;;32.53;;
18265;SDS011;9259;48.194;16.322;2024-03-06T03:53:49;80.80;;;32.30;;
18265;SDS011;9259;48.194;16.322;2024-03-06T03:56:18;80.37;;;32.37;;
18265;SDS011;9259;48.194;16.322;2024-03-06T03:58:46;79.73;;;32.27;;
18265;SDS011;9259;48.194;16.322;2024-03-06T04:01:14;88.67;;;33.07;;
18265;SDS011;9259;48.194;16.322;2024-03-06T04:03:44;85.93;;;32.50;;
18265;SDS011;9259;48.194;16.322;2024-03-06T04:06:11;78.27;;;31.20;;
18265;SDS011;9259;48.194;16.322;2024-03-06T04:08:39;75.17;;;30.30;;
18265;SDS011;9259;48.194;16.322;2024-03-06T04:11:07;81.13;;;30.93;;
18265;SDS011;9259;48.194;16.322;2024-03-06T04:13:36;80.13;;;31.13;;
18265;SDS011;9259;48.194;16.322;2024-03-06T04:16:05;71.23;;;29.67;;
18265;SDS011;9259;48.194;16.322;2024-03-06T04:18:33;82.27;;;30.80;;
18265;SDS011;9259;48.194;16.322;2024-03-06T04:21:04;73.53;;;29.43;;
18265;SDS011;9259;48.194;16.322;2024-03-06T04:23:32;74.63;;;31.03;;
18265;SDS011;9259;48.194;16.322;2024-03-06T04:26:01;73.57;;;29.77;;
18265;SDS011;9259;48.194;16.322;2024-03-06T04:28:29;80.57;;;30.97;;
18265;SDS011;9259;48.194;16.322;2024-03-06T04:30:57;79.13;;;31.57;;
18265;SDS011;9259;48.194;16.322;2024-03-06T04:33:25;80.73;;;30.80;;
18265;SDS011;9259;48.194;16.322;2024-03-06T04:35:53;74.67;;;29.87;;
18265;SDS011;9259;48.194;16.322;2024-03-06T04:38:22;71.10;;;28.17;;
18265;SDS011;9259;48.194;16.322;2024-03-06T04:40:50;74.23;;;29.73;;
18265;SDS011;9259;48.194;16.322;2024-03-06T04:43:18;78.17;;;29.87;;
18265;SDS011;9259;48.194;16.322;2024-03-06T04:45:45;77.07;;;29.87;;
18265;SDS011;9259;48.194;16.322;2024-03-06T04:48:13;70.37;;;29.33;;
18265;SDS011;9259;48.194;16.322;2024-03-06T04:50:41;74.40;;;30.70;;
18265;SDS011;9259;48.194;16.322;2024-03-06T04:53:10;75.70;;;29.93;;
18265;SDS011;9259;48.194;16.322;2024-03-06T04:55:39;75.90;;;29.20;;
18265;SDS011;9259;48.194;16.322;2024-03-06T04:58:07;70.77;;;29.10;;
18265;SDS011;9259;48.194;16.322;2024-03-06T05:00:35;73.63;;;28.73;;
18265;SDS011;9259;48.194;16.322;2024-03-06T05:03:03;69.50;;;28.83;;
18265;SDS011;9259;48.194;16.322;2024-03-06T05:05:32;69.97;;;28.77;;
18265;SDS011;9259;48.194;16.322;2024-03-06T05:08:00;74.90;;;29.23;;
18265;SDS011;9259;48.194;16.322;2024-03-06T05:10:27;71.93;;;28.90;;
18265;SDS011;9259;48.194;16.322;2024-03-06T05:12:57;73.77;;;26.50;;
18265;SDS011;9259;48.194;16.322;2024-03-06T05:15:24;67.87;;;26.93;;
18265;SDS011;9259;48.194;16.322;2024-03-06T05:17:53;71.80;;;27.90;;
18265;SDS011;9259;48.194;16.322;2024-03-06T05:20:21;67.63;;;26.23;;
18265;SDS011;9259;48.194;16.322;2024-03-06T05:22:49;67.43;;;26.27;;
18265;SDS011;9259;48.194;16.322;2024-03-06T05:25:17;68.67;;;26.37;;
18265;SDS011;9259;48.194;16.322;2024-03-06T05:27:45;62.97;;;25.73;;
18265;SDS011;9259;48.194;16.322;2024-03-06T05:30:14;63.40;;;25.67;;
18265;SDS011;9259;48.194;16.322;2024-03-06T05:32:42;63.67;;;24.87;;
18265;SDS011;9259;48.194;16.322;2024-03-06T05:35:10;61.13;;;25.53;;
18265;SDS011;9259;48.194;16.322;2024-03-06T05:37:37;59.60;;;24.60;;
18265;SDS011;9259;48.194;16.322;2024-03-06T05:40:06;59.87;;;24.33;;
18265;SDS011;9259;48.194;16.322;2024-03-06T05:42:36;59.13;;;23.93;;
18265;SDS011;9259;48.194;16.322;2024-03-06T05:45:04;63.93;;;24.77;;
18265;SDS011;9259;48.194;16.322;2024-03-06T05:47:37;52.67;;;22.80;;
18265;SDS011;9259;48.194;16.322;2024-03-06T05:50:06;55.00;;;22.77;;
18265;SDS011;9259;48.194;16.322;2024-03-06T05:52:36;52.57;;;22.67;;
18265;SDS011;9259;48.194;16.322;2024-03-06T05:55:04;57.83;;;22.80;;
18265;SDS011;9259;48.194;16.322;2024-03-06T05:57:33;50.83;;;21.60;;
18265;SDS011;9259;48.194;16.322;2024-03-06T06:00:01;53.33;;;21.80;;
18265;SDS011;9259;48.194;16.322;2024-03-06T06:02:38;53.73;;;22.30;;
18265;SDS011;9259;48.194;16.322;2024-03-06T06:05:06;49.63;;;21.23;;
18265;SDS011;9259;48.194;16.322;2024-03-06T06:07:34;43.33;;;19.40;;
18265;SDS011;9259;48.194;16.322;2024-03-06T06:10:04;51.33;;;21.83;;
18265;SDS011;9259;48.194;16.322;2024-03-06T06:12:35;53.10;;;21.10;;
18265;SDS011;9259;48.194;16.322;2024-03-06T06:15:04;49.57;;;20.77;;
18265;SDS011;9259;48.194;16.322;2024-03-06T06:17:34;42.90;;;18.63;;
18265;SDS011;9259;48.194;16.322;2024-03-06T06:20:05;47.20;;;19.53;;
18265;SDS011;9259;48.194;16.322;2024-03-06T06:22:35;42.97;;;19.30;;
18265;SDS011;9259;48.194;16.322;2024-03-06T06:25:03;51.90;;;18.60;;
18265;SDS011;9259;48.194;16.322;2024-03-06T06:27:33;42.47;;;18.40;;
18265;SDS011;9259;48.194;16.322;2024-03-06T06:30:01;39.40;;;17.30;;
18265;SDS011;9259;48.194;16.322;2024-03-06T06:32:29;38.80;;;16.90;;
18265;SDS011;9259;48.194;16.322;2024-03-06T06:34:57;40.20;;;18.20;;
18265;SDS011;9259;48.194;16.322;2024-03-06T06:37:26;40.63;;;17.40;;
18265;SDS011;9259;48.194;16.322;2024-03-06T06:39:54;43.43;;;17.33;;
18265;SDS011;9259;48.194;16.322;2024-03-06T06:42:22;40.27;;;18.23;;
18265;SDS011;9259;48.194;16.322;2024-03-06T06:44:50;43.13;;;18.00;;
18265;SDS011;9259;48.194;16.322;2024-03-06T06:47:18;39.90;;;17.57;;
18265;SDS011;9259;48.194;16.322;2024-03-06T06:49:46;39.07;;;18.63;;
18265;SDS011;9259;48.194;16.322;2024-03-06T06:52:14;39.03;;;17.17;;
18265;SDS011;9259;48.194;16.322;2024-03-06T06:54:44;40.03;;;18.03;;
18265;SDS011;9259;48.194;16.322;2024-03-06T06:57:11;42.37;;;16.40;;
18265;SDS011;9259;48.194;16.322;2024-03-06T06:59:39;41.90;;;18.97;;
18265;SDS011;9259;48.194;16.322;2024-03-06T07:02:07;43.10;;;18.03;;
18265;SDS011;9259;48.194;16.322;2024-03-06T07:04:35;42.97;;;18.37;;
18265;SDS011;9259;48.194;16.322;2024-03-06T07:07:03;37.23;;;17.20;;
18265;SDS011;9259;48.194;16.322;2024-03-06T07:09:31;41.57;;;17.83;;
18265;SDS011;9259;48.194;16.322;2024-03-06T07:12:01;40.73;;;17.60;;
18265;SDS011;9259;48.194;16.322;2024-03-06T07:14:29;41.73;;;18.73;;
18265;SDS011;9259;48.194;16.322;2024-03-06T07:16:57;38.17;;;17.93;;
18265;SDS011;9259;48.194;16.322;2024-03-06T07:19:25;42.07;;;18.40;;
18265;SDS011;9259;48.194;16.322;2024-03-06T07:21:53;44.73;;;19.33;;
18265;SDS011;9259;48.194;16.322;2024-03-06T07:24:21;42.67;;;17.67;;
18265;SDS011;9259;48.194;16.322;2024-03-06T07:26:48;35.20;;;16.47;;
18265;SDS011;9259;48.194;16.322;2024-03-06T07:29:17;40.87;;;16.70;;
18265;SDS011;9259;48.194;16.322;2024-03-06T07:31:45;34.47;;;15.93;;
18265;SDS011;9259;48.194;16.322;2024-03-06T07:34:14;34.47;;;16.47;;
18265;SDS011;9259;48.194;16.322;2024-03-06T07:36:43;32.83;;;16.27;;
18265;SDS011;9259;48.194;16.322;2024-03-06T07:39:12;39.90;;;16.37;;
18265;SDS011;9259;48.194;16.322;2024-03-06T07:41:40;38.30;;;16.37;;
18265;SDS011;9259;48.194;16.322;2024-03-06T07:44:07;29.97;;;15.37;;
18265;SDS011;9259;48.194;16.322;2024-03-06T07:46:37;34.77;;;15.47;;
18265;SDS011;9259;48.194;16.322;2024-03-06T07:49:05;29.43;;;15.80;;
18265;SDS011;9259;48.194;16.322;2024-03-06T07:51:33;29.20;;;15.13;;
18265;SDS011;9259;48.194;16.322;2024-03-06T07:54:02;34.90;;;16.07;;
18265;SDS011;9259;48.194;16.322;2024-03-06T07:56:30;32.83;;;16.50;;
18265;SDS011;9259;48.194;16.322;2024-03-06T07:58:59;32.87;;;15.43;;
18265;SDS011;9259;48.194;16.322;2024-03-06T08:01:27;33.13;;;16.40;;
18265;SDS011;9259;48.194;16.322;2024-03-06T08:03:57;35.43;;;16.73;;
18265;SDS011;9259;48.194;16.322;2024-03-06T08:06:25;32.77;;;15.23;;
18265;SDS011;9259;48.194;16.322;2024-03-06T08:08:55;31.47;;;15.17;;
18265;SDS011;9259;48.194;16.322;2024-03-06T08:11:22;31.70;;;14.83;;
18265;SDS011;9259;48.194;16.322;2024-03-06T08:13:56;32.40;;;15.48;;
18265;SDS011;9259;48.194;16.322;2024-03-06T08:16:24;28.75;;;14.68;;
18265;SDS011;9259;48.194;16.322;2024-03-06T08:18:52;29.08;;;15.52;;
18265;SDS011;9259;48.194;16.322;2024-03-06T08:21:21;29.40;;;15.38;;
18265;SDS011;9259;48.194;16.322;2024-03-06T08:23:49;31.85;;;15.00;;
18265;SDS011;9259;48.194;16.322;2024-03-06T08:26:17;32.13;;;15.27;;
18265;SDS011;9259;48.194;16.322;2024-03-06T08:28:46;33.33;;;15.68;;
18265;SDS011;9259;48.194;16.322;2024-03-06T08:31:14;28.33;;;14.45;;
18265;SDS011;9259;48.194;16.322;2024-03-06T08:33:42;34.25;;;15.85;;
18265;SDS011;9259;48.194;16.322;2024-03-06T08:36:11;30.45;;;14.95;;
18265;SDS011;9259;48.194;16.322;2024-03-06T08:38:41;37.40;;;16.15;;
18265;SDS011;9259;48.194;16.322;2024-03-06T08:41:09;31.23;;;15.07;;
18265;SDS011;9259;48.194;16.322;2024-03-06T08:43:37;33.13;;;14.85;;
18265;SDS011;9259;48.194;16.322;2024-03-06T08:46:05;30.60;;;14.00;;
18265;SDS011;9259;48.194;16.322;2024-03-06T08:48:33;27.05;;;13.82;;
18265;SDS011;9259;48.194;16.322;2024-03-06T08:51:01;28.17;;;14.52;;
18265;SDS011;9259;48.194;16.322;2024-03-06T08:53:36;28.15;;;13.63;;
18265;SDS011;9259;48.194;16.322;2024-03-06T08:56:06;32.03;;;15.25;;
18265;SDS011;9259;48.194;16.322;2024-03-06T08:58:34;33.53;;;15.15;;
18265;SDS011;9259;48.194;16.322;2024-03-06T09:01:02;31.45;;;15.25;;
18265;SDS011;9259;48.194;16.322;2024-03-06T09:03:30;34.20;;;15.60;;
18265;SDS011;9259;48.194;16.322;2024-03-06T09:05:58;31.77;;;16.67;;
18265;SDS011;9259;48.194;16.322;2024-03-06T09:08:28;29.60;;;15.40;;
18265;SDS011;9259;48.194;16.322;2024-03-06T09:10:57;30.60;;;15.68;;
18265;SDS011;9259;48.194;16.322;2024-03-06T09:13:27;36.17;;;16.52;;
18265;SDS011;9259;48.194;16.322;2024-03-06T09:15:55;30.88;;;16.33;;
18265;SDS011;9259;48.194;16.322;2024-03-06T09:18:23;37.75;;;17.50;;
18265;SDS011;9259;48.194;16.322;2024-03-06T09:20:51;30.92;;;16.00;;
18265;SDS011;9259;48.194;16.322;2024-03-06T09:23:19;31.67;;;15.93;;
18265;SDS011;9259;48.194;16.322;2024-03-06T09:25:47;36.90;;;16.30;;
18265;SDS011;9259;48.194;16.322;2024-03-06T09:28:15;38.50;;;15.63;;
18265;SDS011;9259;48.194;16.322;2024-03-06T09:30:44;30.73;;;14.65;;
18265;SDS011;9259;48.194;16.322;2024-03-06T09:33:12;38.50;;;14.53;;
18265;SDS011;9259;48.194;16.322;2024-03-06T09:35:40;34.77;;;15.87;;
18265;SDS011;9259;48.194;16.322;2024-03-06T09:38:10;28.90;;;13.87;;
18265;SDS011;9259;48.194;16.322;2024-03-06T09:40:39;30.83;;;14.20;;
18265;SDS011;9259;48.194;16.322;2024-03-06T09:43:07;29.83;;;14.80;;
18265;SDS011;9259;48.194;16.322;2024-03-06T09:45:36;29.77;;;15.10;;
18265;SDS011;9259;48.194;16.322;2024-03-06T09:48:06;26.60;;;14.67;;
18265;SDS011;9259;48.194;16.322;2024-03-06T09:50:35;28.70;;;14.23;;
18265;SDS011;9259;48.194;16.322;2024-03-06T09:53:07;26.63;;;13.38;;
18265;SDS011;9259;48.194;16.322;2024-03-06T09:55:35;29.83;;;14.87;;
18265;SDS011;9259;48.194;16.322;2024-03-06T09:58:04;26.67;;;13.52;;
18265;SDS011;9259;48.194;16.322;2024-03-06T10:00:33;29.50;;;14.82;;
18265;SDS011;9259;48.194;16.322;2024-03-06T10:03:02;31.10;;;16.75;;
18265;SDS011;9259;48.194;16.322;2024-03-06T10:05:35;29.48;;;14.30;;
18265;SDS011;9259;48.194;16.322;2024-03-06T10:08:03;28.00;;;15.00;;
18265;SDS011;9259;48.194;16.322;2024-03-06T10:10:32;26.92;;;14.25;;
18265;SDS011;9259;48.194;16.322;2024-03-06T10:13:00;27.92;;;14.93;;
18265;SDS011;9259;48.194;16.322;2024-03-06T10:15:28;31.13;;;14.98;;
18265;SDS011;9259;48.194;16.322;2024-03-06T10:18:09;29.95;;;14.93;;
18265;SDS011;9259;48.194;16.322;2024-03-06T10:20:40;31.10;;;15.15;;
18265;SDS011;9259;48.194;16.322;2024-03-06T10:23:10;28.52;;;14.25;;
18265;SDS011;9259;48.194;16.322;2024-03-06T10:25:38;27.35;;;13.90;;
18265;SDS011;9259;48.194;16.322;2024-03-06T10:28:07;26.63;;;13.85;;
18265;SDS011;9259;48.194;16.322;2024-03-06T10:30:36;28.77;;;14.60;;
18265;SDS011;9259;48.194;16.322;2024-03-06T10:33:08;26.77;;;13.27;;
18265;SDS011;9259;48.194;16.322;2024-03-06T10:35:36;25.33;;;12.93;;
18265;SDS011;9259;48.194;16.322;2024-03-06T10:38:07;29.05;;;12.77;;
18265;SDS011;9259;48.194;16.322;2024-03-06T10:40:38;25.40;;;13.25;;
18265;SDS011;9259;48.194;16.322;2024-03-06T10:43:07;24.27;;;12.85;;
18265;SDS011;9259;48.194;16.322;2024-03-06T10:45:40;23.77;;;12.05;;
18265;SDS011;9259;48.194;16.322;2024-03-06T10:48:14;24.48;;;13.57;;
18265;SDS011;9259;48.194;16.322;2024-03-06T10:50:43;27.08;;;12.77;;
18265;SDS011;9259;48.194;16.322;2024-03-06T10:53:14;22.40;;;11.77;;
18265;SDS011;9259;48.194;16.322;2024-03-06T10:55:43;24.13;;;11.80;;
18265;SDS011;9259;48.194;16.322;2024-03-06T10:58:12;28.02;;;13.30;;
18265;SDS011;9259;48.194;16.322;2024-03-06T11:00:40;24.85;;;12.35;;
18265;SDS011;9259;48.194;16.322;2024-03-06T11:03:10;24.95;;;12.80;;
18265;SDS011;9259;48.194;16.322;2024-03-06T11:05:38;24.00;;;11.85;;
18265;SDS011;9259;48.194;16.322;2024-03-06T11:08:07;25.30;;;12.65;;
18265;SDS011;9259;48.194;16.322;2024-03-06T11:10:37;24.08;;;12.50;;
18265;SDS011;9259;48.194;16.322;2024-03-06T11:13:08;20.10;;;11.48;;
18265;SDS011;9259;48.194;16.322;2024-03-06T11:15:48;23.98;;;13.40;;
18265;SDS011;9259;48.194;16.322;2024-03-06T11:21:28;24.60;;;12.70;;
18265;SDS011;9259;48.194;16.322;2024-03-06T11:24:12;24.23;;;12.10;;
18265;SDS011;9259;48.194;16.322;2024-03-06T11:26:43;25.33;;;12.25;;
18265;SDS011;9259;48.194;16.322;2024-03-06T11:29:15;27.00;;;13.00;;
18265;SDS011;9259;48.194;16.322;2024-03-06T11:32:00;23.63;;;12.82;;
18265;SDS011;9259;48.194;16.322;2024-03-06T11:34:29;27.95;;;13.80;;
18265;SDS011;9259;48.194;16.322;2024-03-06T11:36:58;27.60;;;13.45;;
18265;SDS011;9259;48.194;16.322;2024-03-06T11:39:29;24.02;;;13.30;;
18265;SDS011;9259;48.194;16.322;2024-03-06T11:42:03;26.00;;;13.60;;
18265;SDS011;9259;48.194;16.322;2024-03-06T11:44:34;26.45;;;12.80;;
18265;SDS011;9259;48.194;16.322;2024-03-06T11:47:03;24.40;;;12.80;;
18265;SDS011;9259;48.194;16.322;2024-03-06T11:49:33;24.27;;;13.00;;
18265;SDS011;9259;48.194;16.322;2024-03-06T11:52:03;24.17;;;12.80;;
18265;SDS011;9259;48.194;16.322;2024-03-06T11:54:34;24.90;;;13.45;;
18265;SDS011;9259;48.194;16.322;2024-03-06T11:57:03;25.67;;;13.70;;
18265;SDS011;9259;48.194;16.322;2024-03-06T11:59:32;27.83;;;14.25;;
18265;SDS011;9259;48.194;16.322;2024-03-06T12:02:01;31.98;;;15.07;;
18265;SDS011;9259;48.194;16.322;2024-03-06T12:04:31;24.90;;;14.05;;
18265;SDS011;9259;48.194;16.322;2024-03-06T12:07:01;28.92;;;13.48;;
18265;SDS011;9259;48.194;16.322;2024-03-06T12:09:32;26.85;;;13.75;;
18265;SDS011;9259;48.194;16.322;2024-03-06T12:12:03;26.58;;;13.32;;
18265;SDS011;9259;48.194;16.322;2024-03-06T12:14:34;24.58;;;13.95;;
18265;SDS011;9259;48.194;16.322;2024-03-06T12:17:04;29.02;;;14.80;;
18265;SDS011;9259;48.194;16.322;2024-03-06T12:19:34;25.88;;;13.93;;
18265;SDS011;9259;48.194;16.322;2024-03-06T12:22:02;29.80;;;15.00;;
18265;SDS011;9259;48.194;16.322;2024-03-06T12:24:30;27.95;;;13.95;;
18265;SDS011;9259;48.194;16.322;2024-03-06T12:26:59;28.95;;;14.18;;
18265;SDS011;9259;48.194;16.322;2024-03-06T12:29:30;32.38;;;15.30;;
18265;SDS011;9259;48.194;16.322;2024-03-06T12:32:00;32.75;;;15.75;;
18265;SDS011;9259;48.194;16.322;2024-03-06T12:34:29;29.50;;;14.85;;
18265;SDS011;9259;48.194;16.322;2024-03-06T12:36:57;31.40;;;14.88;;
18265;SDS011;9259;48.194;16.322;2024-03-06T12:39:36;32.03;;;13.70;;
18265;SDS011;9259;48.194;16.322;2024-03-06T12:42:04;48.85;;;16.95;;
18265;SDS011;9259;48.194;16.322;2024-03-06T12:44:33;29.02;;;15.40;;
18265;SDS011;9259;48.194;16.322;2024-03-06T12:47:01;31.00;;;15.90;;
18265;SDS011;9259;48.194;16.322;2024-03-06T12:49:29;33.50;;;15.98;;
18265;SDS011;9259;48.194;16.322;2024-03-06T12:51:58;34.70;;;15.77;;
18265;SDS011;9259;48.194;16.322;2024-03-06T12:54:26;28.70;;;15.10;;
18265;SDS011;9259;48.194;16.322;2024-03-06T12:56:54;35.43;;;16.30;;
18265;SDS011;9259;48.194;16.322;2024-03-06T12:59:22;28.67;;;15.60;;
18265;SDS011;9259;48.194;16.322;2024-03-06T13:01:52;31.53;;;14.87;;
18265;SDS011;9259;48.194;16.322;2024-03-06T13:04:20;30.47;;;15.37;;
18265;SDS011;9259;48.194;16.322;2024-03-06T13:06:48;31.43;;;15.40;;
18265;SDS011;9259;48.194;16.322;2024-03-06T13:09:16;36.50;;;15.33;;
18265;SDS011;9259;48.194;16.322;2024-03-06T13:11:44;31.20;;;15.53;;
18265;SDS011;9259;48.194;16.322;2024-03-06T13:14:12;30.20;;;15.13;;
18265;SDS011;9259;48.194;16.322;2024-03-06T13:16:40;31.10;;;15.43;;
18265;SDS011;9259;48.194;16.322;2024-03-06T13:19:09;31.70;;;15.53;;
18265;SDS011;9259;48.194;16.322;2024-03-06T13:21:37;30.07;;;14.60;;
18265;SDS011;9259;48.194;16.322;2024-03-06T13:24:05;29.83;;;14.63;;
18265;SDS011;9259;48.194;16.322;2024-03-06T13:26:33;32.30;;;15.83;;
18265;SDS011;9259;48.194;16.322;2024-03-06T13:29:03;29.07;;;14.30;;
18265;SDS011;9259;48.194;16.322;2024-03-06T13:31:31;33.10;;;14.90;;
18265;SDS011;9259;48.194;16.322;2024-03-06T13:34:00;30.17;;;14.33;;
18265;SDS011;9259;48.194;16.322;2024-03-06T13:36:30;32.23;;;14.17;;
18265;SDS011;9259;48.194;16.322;2024-03-06T13:38:58;31.87;;;14.27;;
18265;SDS011;9259;48.194;16.322;2024-03-06T13:41:26;36.80;;;15.30;;
18265;SDS011;9259;48.194;16.322;2024-03-06T13:43:56;32.27;;;15.27;;
18265;SDS011;9259;48.194;16.322;2024-03-06T13:46:24;35.67;;;16.07;;
18265;SDS011;9259;48.194;16.322;2024-03-06T13:48:52;30.43;;;14.93;;
18265;SDS011;9259;48.194;16.322;2024-03-06T13:51:20;29.50;;;15.50;;
18265;SDS011;9259;48.194;16.322;2024-03-06T13:53:49;33.83;;;15.40;;
18265;SDS011;9259;48.194;16.322;2024-03-06T13:56:17;30.27;;;14.63;;
18265;SDS011;9259;48.194;16.322;2024-03-06T13:58:45;31.77;;;14.83;;
18265;SDS011;9259;48.194;16.322;2024-03-06T14:01:13;30.87;;;13.50;;
18265;SDS011;9259;48.194;16.322;2024-03-06T14:03:41;26.60;;;13.90;;
18265;SDS011;9259;48.194;16.322;2024-03-06T14:06:09;27.90;;;13.40;;
18265;SDS011;9259;48.194;16.322;2024-03-06T14:08:37;30.90;;;15.53;;
18265;SDS011;9259;48.194;16.322;2024-03-06T14:11:08;32.63;;;14.77;;
18265;SDS011;9259;48.194;16.322;2024-03-06T14:13:37;30.47;;;14.37;;
18265;SDS011;9259;48.194;16.322;2024-03-06T14:16:05;28.80;;;14.63;;
18265;SDS011;9259;48.194;16.322;2024-03-06T14:18:33;39.23;;;15.40;;
18265;SDS011;9259;48.194;16.322;2024-03-06T14:21:01;31.87;;;14.10;;
18265;SDS011;9259;48.194;16.322;2024-03-06T14:23:29;27.03;;;12.80;;
18265;SDS011;9259;48.194;16.322;2024-03-06T14:25:57;28.93;;;13.93;;
18265;SDS011;9259;48.194;16.322;2024-03-06T14:28:28;27.90;;;12.70;;
18265;SDS011;9259;48.194;16.322;2024-03-06T14:30:56;31.20;;;14.23;;
18265;SDS011;9259;48.194;16.322;2024-03-06T14:33:25;27.70;;;13.30;;